createdAt,value
2018-11-06T00:00:33.481Z,5.63
2018-11-06T00:03:07.529Z,4.77
2018-11-06T00:05:36.058Z,4.90
2018-11-06T00:08:04.695Z,5.30
2018-11-06T00:10:33.231Z,5.50
2018-11-06T00:13:02.619Z,5.43
2018-11-06T00:15:31.084Z,5.70
2018-11-06T00:17:59.946Z,5.37
2018-11-06T00:20:28.477Z,5.33
2018-11-06T00:22:56.951Z,5.20
2018-11-06T00:25:25.669Z,5.43
2018-11-06T00:27:54.213Z,5.60
2018-11-06T00:30:22.657Z,5.50
2018-11-06T00:32:51.449Z,5.57
2018-11-06T00:35:20.177Z,5.80
2018-11-06T00:37:48.765Z,5.60
2018-11-06T00:40:17.513Z,6.80
2018-11-06T00:42:46.257Z,5.80
2018-11-06T00:45:15.833Z,6.20
2018-11-06T00:47:44.511Z,6.57
2018-11-06T00:50:13.794Z,6.10
2018-11-06T00:52:43.098Z,6.30
2018-11-06T00:55:12.140Z,5.70
2018-11-06T00:57:45.041Z,6.60
2018-11-06T01:00:16.708Z,6.20
2018-11-06T01:02:45.538Z,5.90
2018-11-06T01:05:14.817Z,5.93
2018-11-06T01:07:44.044Z,6.23
2018-11-06T01:10:12.833Z,5.90
2018-11-06T01:12:41.489Z,6.50
2018-11-06T01:15:12.800Z,6.13
2018-11-06T01:17:41.833Z,6.70
2018-11-06T01:20:12.733Z,5.87
2018-11-06T01:22:41.442Z,6.17
2018-11-06T01:25:10.569Z,6.63
2018-11-06T01:27:39.599Z,5.73
2018-11-06T01:30:15.013Z,6.20
2018-11-06T01:32:44.270Z,6.63
2018-11-06T01:37:46.453Z,6.63
2018-11-06T01:40:16.083Z,6.13
2018-11-06T01:42:45.166Z,5.47
2018-11-06T01:45:15.584Z,5.60
2018-11-06T01:47:43.893Z,6.27
2018-11-06T01:50:14.597Z,6.53
2018-11-06T01:52:44.404Z,5.77
2018-11-06T01:55:12.989Z,6.13
2018-11-06T01:57:41.778Z,5.93
2018-11-06T02:00:12.923Z,6.43
2018-11-06T02:02:41.664Z,6.03
2018-11-06T02:05:11.965Z,6.57
2018-11-06T02:07:41.126Z,6.03
2018-11-06T02:10:11.019Z,6.13
2018-11-06T02:12:39.556Z,6.63
2018-11-06T02:15:09.082Z,6.37
2018-11-06T02:17:38.489Z,5.90
2018-11-06T02:20:07.175Z,5.87
2018-11-06T02:22:36.303Z,6.37
2018-11-06T02:25:05.653Z,6.17
2018-11-06T02:27:34.165Z,6.53
2018-11-06T02:30:03.594Z,5.97
2018-11-06T02:32:32.256Z,6.00
2018-11-06T02:35:00.624Z,6.43
2018-11-06T02:37:29.687Z,6.13
2018-11-06T02:39:58.219Z,5.47
2018-11-06T02:42:26.974Z,5.67
2018-11-06T02:44:56.017Z,5.60
2018-11-06T02:47:24.495Z,5.77
2018-11-06T02:49:53.138Z,6.00
2018-11-06T02:52:22.089Z,5.70
2018-11-06T02:54:50.595Z,6.00
2018-11-06T02:57:19.079Z,5.93
2018-11-06T02:59:48.135Z,6.17
2018-11-06T03:02:16.797Z,6.10
2018-11-06T03:04:45.332Z,6.43
2018-11-06T03:07:14.596Z,6.20
2018-11-06T03:09:43.051Z,6.03
2018-11-06T03:12:11.611Z,5.47
2018-11-06T03:14:40.550Z,5.70
2018-11-06T03:17:09.065Z,6.53
2018-11-06T03:19:37.535Z,5.27
2018-11-06T03:22:09.435Z,6.00
2018-11-06T03:24:37.991Z,5.57
2018-11-06T03:27:06.584Z,6.40
2018-11-06T03:29:35.562Z,6.10
2018-11-06T03:32:04.178Z,5.93
2018-11-06T03:34:33.283Z,6.60
2018-11-06T03:37:02.151Z,6.43
2018-11-06T03:39:30.831Z,5.50
2018-11-06T03:41:59.285Z,5.97
2018-11-06T03:44:27.949Z,5.77
2018-11-06T03:46:56.492Z,5.80
2018-11-06T03:49:24.953Z,5.07
2018-11-06T03:51:53.904Z,5.93
2018-11-06T03:54:22.409Z,5.50
2018-11-06T03:56:50.902Z,5.73
2018-11-06T03:59:20.013Z,5.73
2018-11-06T04:01:48.605Z,5.70
2018-11-06T04:04:17.136Z,5.30
2018-11-06T04:06:46.145Z,5.40
2018-11-06T04:09:14.630Z,5.80
2018-11-06T04:11:43.384Z,5.43
2018-11-06T04:14:12.213Z,5.87
2018-11-06T04:16:40.737Z,5.63
2018-11-06T04:19:09.809Z,5.77
2018-11-06T04:21:40.190Z,5.97
2018-11-06T04:24:11.167Z,5.53
2018-11-06T04:26:39.945Z,6.10
2018-11-06T04:29:09.111Z,6.17
2018-11-06T04:31:38.621Z,6.40
2018-11-06T04:34:07.821Z,5.80
2018-11-06T04:36:36.450Z,6.33
2018-11-06T04:39:07.684Z,5.93
2018-11-06T04:41:36.185Z,6.03
2018-11-06T04:44:05.248Z,6.30
2018-11-06T04:46:34.196Z,6.27
2018-11-06T04:49:02.654Z,5.93
2018-11-06T04:51:31.612Z,6.70
2018-11-06T04:54:01.333Z,6.93
2018-11-06T04:56:30.618Z,7.00
2018-11-06T04:58:59.613Z,7.27
2018-11-06T05:01:28.517Z,7.20
2018-11-06T05:03:56.973Z,8.10
2018-11-06T05:06:25.518Z,6.93
2018-11-06T05:08:54.090Z,7.17
2018-11-06T05:11:23.336Z,7.20
2018-11-06T05:13:52.272Z,7.47
2018-11-06T05:16:20.832Z,7.20
2018-11-06T05:18:49.320Z,6.40
2018-11-06T05:21:17.974Z,6.93
2018-11-06T05:23:46.557Z,7.73
2018-11-06T05:26:15.017Z,7.20
2018-11-06T05:28:43.559Z,7.60
2018-11-06T05:31:12.182Z,8.33
2018-11-06T05:33:40.889Z,7.53
2018-11-06T05:36:09.793Z,7.67
2018-11-06T05:38:38.390Z,7.37
2018-11-06T05:41:07.689Z,7.40
2018-11-06T05:43:36.973Z,7.10
2018-11-06T05:46:06.084Z,7.10
2018-11-06T05:48:34.633Z,7.37
2018-11-06T05:51:03.397Z,6.87
2018-11-06T05:53:32.381Z,7.60
2018-11-06T05:56:00.859Z,7.03
2018-11-06T05:58:29.610Z,6.57
2018-11-06T06:00:58.503Z,6.63
2018-11-06T06:03:26.980Z,7.40
2018-11-06T06:05:55.945Z,6.90
2018-11-06T06:08:24.529Z,7.67
2018-11-06T06:10:53.026Z,7.23
2018-11-06T06:13:22.050Z,6.87
2018-11-06T06:15:50.686Z,6.97
2018-11-06T06:18:19.134Z,6.77
2018-11-06T06:20:48.090Z,6.67
2018-11-06T06:23:16.921Z,7.13
2018-11-06T06:25:45.382Z,6.83
2018-11-06T06:28:14.366Z,7.00
2018-11-06T06:30:43.281Z,6.57
2018-11-06T06:33:11.739Z,6.63
2018-11-06T06:35:40.390Z,7.17
2018-11-06T06:38:09.214Z,6.80
2018-11-06T06:40:37.682Z,7.57
2018-11-06T06:43:06.769Z,7.67
2018-11-06T06:45:35.455Z,7.63
2018-11-06T06:48:04.152Z,7.33
2018-11-06T06:50:32.693Z,7.10
2018-11-06T06:53:01.510Z,7.47
2018-11-06T06:55:29.965Z,6.63
2018-11-06T06:57:58.655Z,7.47
2018-11-06T07:00:27.819Z,7.63
2018-11-06T07:02:56.270Z,7.20
2018-11-06T07:05:25.213Z,6.87
2018-11-06T07:07:53.829Z,7.07
2018-11-06T07:10:23.087Z,7.73
2018-11-06T07:12:52.226Z,8.10
2018-11-06T07:15:22.445Z,7.70
2018-11-06T07:17:51.709Z,8.50
2018-11-06T07:20:22.592Z,8.73
2018-11-06T07:22:51.881Z,10.63
2018-11-06T07:25:20.358Z,11.20
2018-11-06T07:27:49.270Z,12.33
2018-11-06T07:30:19.166Z,17.07
2018-11-06T07:32:47.895Z,15.40
2018-11-06T07:35:17.217Z,15.60
2018-11-06T07:37:46.047Z,17.23
2018-11-06T07:40:17.294Z,19.30
2018-11-06T07:42:45.885Z,20.33
2018-11-06T07:45:16.875Z,20.60
2018-11-06T07:47:45.463Z,21.23
2018-11-06T07:50:14.620Z,21.47
2018-11-06T07:52:43.437Z,22.90
2018-11-06T07:55:17.533Z,21.37
2018-11-06T07:57:46.113Z,21.73
2018-11-06T08:00:19.027Z,21.47
2018-11-06T08:02:48.417Z,22.33
2018-11-06T08:05:17.328Z,23.60
2018-11-06T08:07:46.625Z,23.23
2018-11-06T08:10:15.322Z,23.87
2018-11-06T08:12:45.248Z,25.10
2018-11-06T08:15:14.218Z,23.77
2018-11-06T08:17:44.105Z,25.40
2018-11-06T08:20:12.844Z,24.90
2018-11-06T08:22:41.561Z,25.87
2018-11-06T08:25:11.992Z,26.03
2018-11-06T08:27:41.232Z,27.27
2018-11-06T08:30:10.553Z,28.80
2018-11-06T08:32:39.896Z,28.77
2018-11-06T08:35:10.209Z,28.20
2018-11-06T08:37:39.314Z,30.03
2018-11-06T08:40:09.436Z,27.73
2018-11-06T08:42:38.173Z,29.17
2018-11-06T08:45:08.401Z,30.57
2018-11-06T08:47:37.407Z,31.50
2018-11-06T08:50:07.004Z,31.40
2018-11-06T08:52:35.575Z,26.87
2018-11-06T08:55:04.272Z,29.47
2018-11-06T08:57:32.793Z,31.63
2018-11-06T09:00:01.690Z,31.97
2018-11-06T09:02:30.609Z,32.60
2018-11-06T09:04:59.109Z,32.97
2018-11-06T09:07:28.014Z,32.13
2018-11-06T09:09:56.596Z,31.17
2018-11-06T09:12:25.058Z,32.00
2018-11-06T09:14:54.070Z,34.23
2018-11-06T09:17:23.049Z,30.93
2018-11-06T09:19:51.512Z,32.97
2018-11-06T09:22:20.541Z,35.17
2018-11-06T09:24:49.123Z,33.83
2018-11-06T09:27:17.609Z,34.67
2018-11-06T09:29:46.352Z,34.20
2018-11-06T09:32:15.104Z,31.43
2018-11-06T09:34:43.561Z,33.03
2018-11-06T09:37:12.268Z,33.73
2018-11-06T09:39:40.925Z,30.60
2018-11-06T09:42:09.413Z,29.43
2018-11-06T09:44:38.282Z,30.17
2018-11-06T09:47:07.279Z,30.00
2018-11-06T09:49:35.769Z,30.37
2018-11-06T09:52:04.856Z,32.33
2018-11-06T09:54:33.340Z,30.87
2018-11-06T09:57:01.883Z,30.27
2018-11-06T09:59:30.472Z,36.67
2018-11-06T10:01:59.333Z,30.73
2018-11-06T10:04:27.846Z,30.70
2018-11-06T10:06:56.779Z,31.43
2018-11-06T10:09:25.022Z,32.53
2018-11-06T10:11:53.502Z,33.73
2018-11-06T10:14:22.415Z,33.97
2018-11-06T10:16:51.057Z,37.93
2018-11-06T10:19:19.529Z,35.77
2018-11-06T10:21:48.389Z,42.73
2018-11-06T10:24:17.252Z,34.70
2018-11-06T10:26:45.707Z,36.97
2018-11-06T10:29:14.306Z,38.00
2018-11-06T10:31:43.290Z,37.43
2018-11-06T10:34:11.741Z,37.53
2018-11-06T10:36:40.392Z,39.53
2018-11-06T10:39:11.569Z,36.60
2018-11-06T10:41:40.196Z,45.03
2018-11-06T10:44:09.189Z,42.50
2018-11-06T10:46:38.742Z,49.43
2018-11-06T10:49:08.173Z,35.33
2018-11-06T10:51:37.119Z,38.33
2018-11-06T10:54:06.349Z,36.97
2018-11-06T10:56:34.867Z,43.07
2018-11-06T10:59:03.801Z,40.87
2018-11-06T11:01:37.934Z,40.80
2018-11-06T11:04:11.814Z,35.73
2018-11-06T11:06:40.875Z,37.93
2018-11-06T11:09:10.271Z,35.30
2018-11-06T11:11:38.777Z,33.80
2018-11-06T11:14:07.852Z,36.90
2018-11-06T11:16:36.357Z,36.53
2018-11-06T11:19:05.370Z,33.67
2018-11-06T11:21:34.022Z,35.57
2018-11-06T11:24:02.467Z,35.63
2018-11-06T11:26:30.934Z,36.73
2018-11-06T11:28:59.608Z,38.20
2018-11-06T11:31:28.138Z,40.70
2018-11-06T11:33:56.621Z,34.70
2018-11-06T11:36:25.407Z,40.30
2018-11-06T11:38:53.882Z,35.80
2018-11-06T11:41:22.392Z,35.03
2018-11-06T11:43:51.409Z,31.33
2018-11-06T11:46:19.854Z,32.30
2018-11-06T11:48:49.005Z,34.10
2018-11-06T11:51:18.027Z,33.27
2018-11-06T11:53:46.529Z,32.73
2018-11-06T11:56:15.006Z,33.50
2018-11-06T11:58:44.130Z,30.00
2018-11-06T12:01:12.595Z,30.00
2018-11-06T12:03:41.106Z,31.70
2018-11-06T12:06:09.806Z,29.60
2018-11-06T12:08:38.285Z,30.00
2018-11-06T12:11:07.006Z,30.27
2018-11-06T12:13:35.996Z,27.43
2018-11-06T12:16:04.582Z,30.87
2018-11-06T12:18:33.083Z,28.67
2018-11-06T12:21:02.303Z,29.33
2018-11-06T12:23:30.742Z,30.30
2018-11-06T12:25:59.233Z,30.07
2018-11-06T12:28:28.361Z,29.57
2018-11-06T12:30:56.820Z,28.83
2018-11-06T12:33:25.344Z,32.53
2018-11-06T12:35:53.994Z,29.27
2018-11-06T12:38:22.899Z,26.90
2018-11-06T12:40:51.426Z,27.37
2018-11-06T12:43:20.482Z,26.03
2018-11-06T12:45:48.930Z,28.10
2018-11-06T12:48:17.488Z,27.87
2018-11-06T12:50:46.289Z,26.63
2018-11-06T12:53:14.777Z,27.73
2018-11-06T12:55:43.330Z,28.73
2018-11-06T12:58:12.284Z,27.13
2018-11-06T13:00:40.749Z,27.60
2018-11-06T13:03:09.400Z,27.40
2018-11-06T13:05:38.497Z,27.17
2018-11-06T13:08:06.977Z,27.13
2018-11-06T13:10:35.470Z,30.03
2018-11-06T13:13:04.693Z,29.17
2018-11-06T13:15:33.244Z,27.70
2018-11-06T13:18:01.721Z,28.60
2018-11-06T13:20:30.754Z,30.63
2018-11-06T13:22:59.265Z,29.60
2018-11-06T13:25:27.783Z,30.00
2018-11-06T13:27:56.559Z,28.33
2018-11-06T13:30:25.040Z,28.87
2018-11-06T13:32:53.805Z,30.67
2018-11-06T13:35:23.536Z,30.80
2018-11-06T13:37:52.004Z,31.37
2018-11-06T13:40:20.544Z,31.60
2018-11-06T13:42:49.473Z,30.47
2018-11-06T13:45:19.611Z,30.50
2018-11-06T13:47:48.057Z,28.60
2018-11-06T13:50:16.714Z,30.90
2018-11-06T13:52:45.448Z,30.93
2018-11-06T13:55:14.941Z,33.97
2018-11-06T13:57:44.205Z,30.80
2018-11-06T14:00:15.298Z,29.83
2018-11-06T14:02:43.988Z,31.43
2018-11-06T14:05:13.242Z,32.10
2018-11-06T14:07:41.741Z,33.23
2018-11-06T14:10:10.508Z,34.33
2018-11-06T14:12:39.615Z,33.67
2018-11-06T14:15:08.113Z,32.07
2018-11-06T14:17:36.788Z,33.93
2018-11-06T14:20:07.245Z,33.20
2018-11-06T14:22:35.824Z,37.70
2018-11-06T14:25:04.733Z,39.30
2018-11-06T14:27:33.411Z,35.10
2018-11-06T14:30:02.066Z,36.03
2018-11-06T14:32:30.532Z,34.70
2018-11-06T14:34:59.371Z,37.57
2018-11-06T14:37:27.850Z,35.37
2018-11-06T14:39:56.376Z,35.20
2018-11-06T14:42:25.149Z,34.83
2018-11-06T14:44:53.605Z,36.23
2018-11-06T14:47:22.145Z,37.77
2018-11-06T14:49:51.105Z,35.83
2018-11-06T14:52:19.640Z,33.90
2018-11-06T14:54:48.336Z,33.50
2018-11-06T14:57:16.991Z,31.43
2018-11-06T14:59:45.513Z,33.47
2018-11-06T15:02:13.987Z,25.77
2018-11-06T15:04:42.834Z,29.90
2018-11-06T15:07:11.326Z,29.97
2018-11-06T15:09:39.801Z,28.60
2018-11-06T15:12:08.658Z,28.80
2018-11-06T15:14:37.422Z,28.63
2018-11-06T15:17:06.150Z,28.23
2018-11-06T15:19:34.889Z,28.10
2018-11-06T15:22:04.162Z,29.57
2018-11-06T15:24:32.681Z,28.43
2018-11-06T15:27:01.453Z,27.30
2018-11-06T15:29:29.956Z,23.80
2018-11-06T15:31:58.508Z,25.83
2018-11-06T15:34:27.441Z,24.00
2018-11-06T15:36:55.967Z,24.47
2018-11-06T15:39:24.477Z,24.00
2018-11-06T15:41:53.282Z,22.53
2018-11-06T15:44:21.791Z,22.00
2018-11-06T15:46:50.302Z,23.53
2018-11-06T15:49:19.254Z,24.33
2018-11-06T15:51:48.005Z,25.20
2018-11-06T15:54:16.490Z,24.90
2018-11-06T15:56:45.616Z,24.23
2018-11-06T15:59:14.102Z,25.47
2018-11-06T16:01:42.694Z,25.53
2018-11-06T16:04:11.421Z,26.23
2018-11-06T16:06:39.881Z,24.60
2018-11-06T16:09:08.481Z,25.80
2018-11-06T16:11:37.167Z,25.60
2018-11-06T16:14:05.749Z,24.73
2018-11-06T16:16:34.269Z,25.63
2018-11-06T16:19:03.077Z,27.03
2018-11-06T16:21:31.621Z,25.87
2018-11-06T16:24:00.144Z,25.73
2018-11-06T16:26:29.549Z,25.63
2018-11-06T16:28:58.172Z,26.07
2018-11-06T16:31:26.670Z,24.27
2018-11-06T16:33:55.419Z,26.20
2018-11-06T16:36:24.156Z,27.23
2018-11-06T16:38:52.702Z,26.30
2018-11-06T16:41:21.661Z,28.87
2018-11-06T16:43:50.249Z,29.40
2018-11-06T16:46:18.715Z,27.93
2018-11-06T16:48:47.329Z,30.67
2018-11-06T16:51:15.853Z,29.60
2018-11-06T16:53:44.309Z,30.23
2018-11-06T16:56:13.058Z,29.20
2018-11-06T16:58:41.716Z,30.30
2018-11-06T17:01:10.330Z,30.43
2018-11-06T17:03:39.197Z,29.20
2018-11-06T17:06:11.826Z,30.33
2018-11-06T17:08:40.657Z,31.23
2018-11-06T17:11:09.121Z,33.37
2018-11-06T17:13:37.631Z,33.87
2018-11-06T17:16:07.291Z,33.07
2018-11-06T17:18:35.728Z,31.63
2018-11-06T17:21:04.249Z,29.93
2018-11-06T17:23:33.291Z,30.80
2018-11-06T17:26:01.879Z,32.47
2018-11-06T17:28:30.433Z,31.17
2018-11-06T17:30:59.375Z,29.57
2018-11-06T17:33:28.769Z,31.83
2018-11-06T17:35:57.334Z,30.67
2018-11-06T17:38:26.179Z,31.00
2018-11-06T17:40:54.652Z,32.13
2018-11-06T17:43:23.141Z,31.60
2018-11-06T17:45:52.109Z,34.17
2018-11-06T17:48:20.849Z,36.13
2018-11-06T17:50:49.322Z,32.67
2018-11-06T17:53:18.492Z,31.57
2018-11-06T17:55:46.990Z,32.20
2018-11-06T17:58:15.497Z,33.00
2018-11-06T18:00:44.262Z,33.93
2018-11-06T18:03:12.746Z,35.20
2018-11-06T18:05:41.270Z,35.67
2018-11-06T18:08:10.562Z,36.07
2018-11-06T18:10:39.162Z,36.03
2018-11-06T18:13:07.645Z,35.47
2018-11-06T18:15:36.349Z,34.97
2018-11-06T18:18:04.957Z,32.57
2018-11-06T18:20:33.439Z,35.23
2018-11-06T18:23:02.087Z,34.40
2018-11-06T18:25:30.805Z,36.10
2018-11-06T18:27:59.202Z,34.17
2018-11-06T18:30:28.324Z,33.23
2018-11-06T18:32:56.775Z,35.43
2018-11-06T18:35:25.358Z,36.57
2018-11-06T18:37:55.253Z,35.10
2018-11-06T18:40:23.759Z,35.17
2018-11-06T18:42:52.365Z,35.83
2018-11-06T18:45:21.194Z,34.93
2018-11-06T18:47:49.752Z,37.40
2018-11-06T18:50:19.378Z,36.90
2018-11-06T18:52:49.088Z,38.13
2018-11-06T18:55:17.573Z,38.17
2018-11-06T18:57:46.156Z,36.10
2018-11-06T19:00:20.319Z,37.37
2018-11-06T19:02:50.313Z,38.10
2018-11-06T19:05:19.518Z,36.30
2018-11-06T19:07:48.533Z,37.50
2018-11-06T19:10:17.677Z,36.73
2018-11-06T19:12:46.534Z,37.87
2018-11-06T19:15:18.565Z,39.63
2018-11-06T19:17:47.706Z,39.60
2018-11-06T19:20:16.558Z,38.27
2018-11-06T19:22:45.605Z,38.30
2018-11-06T19:25:14.569Z,38.93
2018-11-06T19:27:43.153Z,39.87
2018-11-06T19:30:14.982Z,38.70
2018-11-06T19:32:43.712Z,38.63
2018-11-06T19:35:12.355Z,38.93
2018-11-06T19:37:41.399Z,39.57
2018-11-06T19:40:11.613Z,40.20
2018-11-06T19:42:40.811Z,38.77
2018-11-06T19:45:10.297Z,39.20
2018-11-06T19:47:39.036Z,41.17
2018-11-06T19:50:09.157Z,42.77
2018-11-06T19:52:38.180Z,40.20
2018-11-06T19:55:07.851Z,40.33
2018-11-06T19:57:36.364Z,42.47
2018-11-06T20:00:08.601Z,41.67
2018-11-06T20:02:37.133Z,43.57
2018-11-06T20:05:06.089Z,42.90
2018-11-06T20:07:35.093Z,42.27
2018-11-06T20:10:03.650Z,42.70
2018-11-06T20:12:32.126Z,43.10
2018-11-06T20:15:01.359Z,43.20
2018-11-06T20:17:29.941Z,43.77
2018-11-06T20:19:58.366Z,43.70
2018-11-06T20:22:27.212Z,45.07
2018-11-06T20:24:55.694Z,42.97
2018-11-06T20:27:24.233Z,38.90
2018-11-06T20:29:53.109Z,37.67
2018-11-06T20:32:21.586Z,42.33
2018-11-06T20:34:50.029Z,39.77
2018-11-06T20:37:19.121Z,39.40
2018-11-06T20:39:47.694Z,41.20
2018-11-06T20:42:16.145Z,40.77
2018-11-06T20:44:45.079Z,40.03
2018-11-06T20:47:13.639Z,41.17
2018-11-06T20:49:42.159Z,40.10
2018-11-06T20:52:11.184Z,41.87
2018-11-06T20:54:40.097Z,32.07
2018-11-06T20:57:08.604Z,39.57
2018-11-06T20:59:37.518Z,39.50
2018-11-06T21:02:06.613Z,38.57
2018-11-06T21:04:35.130Z,38.43
2018-11-06T21:07:04.269Z,34.73
2018-11-06T21:09:32.808Z,35.27
2018-11-06T21:12:01.318Z,35.33
2018-11-06T21:14:30.586Z,30.47
2018-11-06T21:16:59.105Z,32.67
2018-11-06T21:19:27.593Z,27.30
2018-11-06T21:21:56.308Z,31.30
2018-11-06T21:24:24.818Z,29.93
2018-11-06T21:26:53.379Z,29.47
2018-11-06T21:29:22.327Z,30.07
2018-11-06T21:31:50.842Z,30.53
2018-11-06T21:34:19.329Z,30.90
2018-11-06T21:36:48.075Z,31.07
2018-11-06T21:39:17.224Z,30.27
2018-11-06T21:41:45.624Z,30.93
2018-11-06T21:44:14.413Z,30.97
2018-11-06T21:46:42.901Z,30.43
2018-11-06T21:49:18.049Z,30.83
2018-11-06T21:51:46.570Z,29.67
2018-11-06T21:54:15.090Z,30.70
2018-11-06T21:56:44.325Z,33.27
2018-11-06T21:59:12.903Z,30.37
2018-11-06T22:01:41.376Z,32.17
2018-11-06T22:04:10.441Z,30.63
2018-11-06T22:06:38.941Z,32.70
2018-11-06T22:09:08.635Z,31.67
2018-11-06T22:11:37.280Z,29.57
2018-11-06T22:14:06.760Z,30.67
2018-11-06T22:16:35.213Z,29.63
2018-11-06T22:19:04.645Z,30.77
2018-11-06T22:21:33.156Z,31.07
2018-11-06T22:24:01.623Z,32.33
2018-11-06T22:26:30.387Z,28.93
2018-11-06T22:28:58.958Z,30.87
2018-11-06T22:31:27.421Z,30.73
2018-11-06T22:33:56.741Z,30.53
2018-11-06T22:36:25.195Z,30.00
2018-11-06T22:38:53.660Z,30.37
2018-11-06T22:41:22.814Z,32.33
2018-11-06T22:43:51.321Z,31.83
2018-11-06T22:46:19.777Z,27.00
2018-11-06T22:48:48.872Z,28.77
2018-11-06T22:51:17.445Z,32.93
2018-11-06T22:53:45.897Z,31.17
2018-11-06T22:56:14.846Z,29.53
2018-11-06T22:58:43.333Z,30.30
2018-11-06T23:01:18.129Z,33.07
2018-11-06T23:03:47.299Z,32.63
2018-11-06T23:06:15.929Z,34.60
2018-11-06T23:08:44.494Z,36.23
2018-11-06T23:11:13.642Z,36.50
2018-11-06T23:13:42.353Z,37.83
2018-11-06T23:16:10.929Z,40.20
2018-11-06T23:18:39.548Z,36.97
2018-11-06T23:21:08.037Z,38.70
2018-11-06T23:23:36.686Z,35.13
2018-11-06T23:26:05.961Z,33.20
2018-11-06T23:28:34.397Z,33.23
2018-11-06T23:31:02.922Z,33.20
2018-11-06T23:33:31.479Z,29.90
2018-11-06T23:35:59.925Z,28.37
2018-11-06T23:38:28.485Z,32.23
2018-11-06T23:40:57.481Z,29.97
2018-11-06T23:43:25.909Z,31.63
2018-11-06T23:45:54.481Z,30.23
2018-11-06T23:48:23.246Z,29.03
2018-11-06T23:50:51.689Z,26.97
2018-11-06T23:53:20.579Z,28.97
2018-11-06T23:55:49.347Z,27.10
2018-11-06T23:58:17.817Z,24.90
